Time;durP1;ratioP1;P1;durP2;ratioP2;P2;SDS_P1;SDS_P2;PMS_P1;PMS_P2;Temp;Humidity;BMP_temperature;BMP_pressure;BME280_temperature;BME280_humidity;BME280_pressure;Samples;Min_cycle;Max_cycle;Signal;HPM_P1;HPM_P2
2023/06/22 00:00:49;;;;;;;54.38;31.02;;;17.30;99.90;;;;;;5081982;28;20024;-66
2023/06/22 00:03:17;;;;;;;56.55;31.40;;;17.30;99.90;;;;;;5087026;28;20040;-66
2023/06/22 00:05:42;;;;;;;55.15;32.28;;;17.30;99.90;;;;;;5073939;28;20021;-66
2023/06/22 00:08:08;;;;;;;53.08;30.40;;;17.30;99.90;;;;;;5073605;28;20369;-65
2023/06/22 00:10:33;;;;;;;49.13;28.55;;;17.30;99.90;;;;;;5091487;28;20545;-67
2023/06/22 00:12:59;;;;;;;54.53;30.02;;;17.30;99.90;;;;;;5094102;28;20032;-66
2023/06/22 00:15:24;;;;;;;58.90;31.98;;;17.30;99.90;;;;;;5094030;28;20061;-66
2023/06/22 00:17:51;;;;;;;60.67;31.52;;;17.30;99.90;;;;;;5094122;28;20028;-66
2023/06/22 00:20:18;;;;;;;56.65;32.10;;;17.30;99.90;;;;;;5086078;28;20051;-66
2023/06/22 00:22:44;;;;;;;58.40;30.75;;;17.20;99.90;;;;;;5078900;28;20068;-66
2023/06/22 00:25:09;;;;;;;63.05;33.40;;;17.20;99.90;;;;;;5093847;28;20028;-67
2023/06/22 00:27:35;;;;;;;64.45;34.03;;;17.20;99.90;;;;;;5093671;28;20039;-67
2023/06/22 00:30:02;;;;;;;61.40;32.67;;;17.20;99.90;;;;;;5093784;28;20080;-66
2023/06/22 00:32:27;;;;;;;64.57;33.40;;;17.20;99.90;;;;;;5093489;28;20468;-66
2023/06/22 00:34:53;;;;;;;69.15;34.03;;;17.20;99.90;;;;;;5093521;28;20036;-66
2023/06/22 00:37:18;;;;;;;66.53;32.67;;;17.20;99.90;;;;;;5092733;28;20081;-67
2023/06/22 00:39:44;;;;;;;63.78;34.15;;;17.20;99.90;;;;;;5093501;28;20127;-67
2023/06/22 00:42:09;;;;;;;71.20;34.92;;;17.10;99.90;;;;;;5093523;28;20028;-67
2023/06/22 00:44:35;;;;;;;74.35;35.47;;;17.20;99.90;;;;;;5093625;28;20039;-67
2023/06/22 00:47:02;;;;;;;74.97;36.53;;;17.20;99.90;;;;;;5092783;28;20024;-65
2023/06/22 00:49:28;;;;;;;75.40;36.20;;;17.20;99.90;;;;;;5093190;28;20479;-67
2023/06/22 00:51:54;;;;;;;77.05;38.60;;;17.10;99.90;;;;;;5092691;28;20032;-67
2023/06/22 00:54:24;;;;;;;82.15;40.17;;;17.10;99.90;;;;;;5092205;28;20028;-67
2023/06/22 00:56:56;;;;;;;82.72;40.83;;;17.10;99.90;;;;;;5093585;28;20043;-66
2023/06/22 00:59:21;;;;;;;81.18;39.22;;;17.20;99.90;;;;;;5093339;28;20073;-66
2023/06/22 01:01:47;;;;;;;84.93;42.03;;;17.20;99.90;;;;;;5076364;28;20040;-65
2023/06/22 01:04:13;;;;;;;86.55;42.92;;;17.10;99.90;;;;;;5072434;28;20032;-65
2023/06/22 01:06:51;;;;;;;87.38;42.33;;;17.10;99.90;;;;;;5072971;28;20107;-67
2023/06/22 01:09:22;;;;;;;92.22;42.00;;;17.10;99.90;;;;;;5073088;28;20101;-66
2023/06/22 01:11:59;;;;;;;83.40;38.47;;;17.10;99.90;;;;;;5076726;28;20060;-67
2023/06/22 01:14:37;;;;;;;80.63;41.88;;;17.20;99.90;;;;;;5073493;28;20036;-66
2023/06/22 01:17:06;;;;;;;94.05;42.00;;;17.20;99.90;;;;;;5092584;28;20016;-66
2023/06/22 01:19:55;;;;;;;93.18;41.95;;;17.20;99.90;;;;;;5092862;28;20032;-66
2023/06/22 01:22:24;;;;;;;86.03;42.55;;;17.10;99.90;;;;;;5092570;28;20035;-67
2023/06/22 01:25:10;;;;;;;82.00;39.42;;;17.20;99.90;;;;;;5092795;28;20043;-67
2023/06/22 01:28:17;;;;;;;68.60;36.67;;;17.10;99.90;;;;;;5090248;28;20597;-66
2023/06/22 01:30:46;;;;;;;58.92;33.05;;;17.10;99.90;;;;;;5043554;28;20044;-66
2023/06/22 01:33:13;;;;;;;71.22;37.00;;;17.10;99.90;;;;;;5074780;28;20484;-66
2023/06/22 01:35:39;;;;;;;70.97;34.80;;;17.00;99.90;;;;;;5092666;28;20528;-67
2023/06/22 01:38:06;;;;;;;65.40;33.55;;;17.00;99.90;;;;;;5092708;28;20028;-66
2023/06/22 01:40:33;;;;;;;81.50;37.85;;;17.00;99.90;;;;;;5092706;28;20024;-66
2023/06/22 01:43:01;;;;;;;76.63;36.45;;;16.90;99.90;;;;;;5092331;28;20039;-67
2023/06/22 01:45:27;;;;;;;82.10;38.38;;;16.90;99.90;;;;;;5092602;28;20392;-67
2023/06/22 01:47:54;;;;;;;80.82;39.00;;;16.90;99.90;;;;;;5093002;28;20529;-66
2023/06/22 01:50:20;;;;;;;74.35;36.30;;;16.90;99.90;;;;;;5092536;28;20032;-66
2023/06/22 01:52:45;;;;;;;70.68;36.28;;;16.90;99.90;;;;;;5092775;28;20028;-65
2023/06/22 01:55:11;;;;;;;70.45;36.00;;;16.80;99.90;;;;;;5092591;28;20032;-65
2023/06/22 01:57:38;;;;;;;81.40;38.33;;;16.80;99.90;;;;;;5092434;28;20036;-67
2023/06/22 02:00:11;;;;;;;90.03;40.55;;;16.80;99.90;;;;;;5092546;28;20035;-67
2023/06/22 02:02:43;;;;;;;77.35;38.10;;;16.70;99.90;;;;;;5094106;28;20471;-67
2023/06/22 02:05:11;;;;;;;86.33;39.70;;;16.70;99.90;;;;;;5096623;28;20031;-66
2023/06/22 02:07:48;;;;;;;82.50;39.03;;;16.70;99.90;;;;;;5089014;28;20142;-67
2023/06/22 02:10:16;;;;;;;82.00;39.63;;;16.70;99.90;;;;;;5091942;28;20017;-66
2023/06/22 02:12:43;;;;;;;80.88;38.28;;;16.70;99.90;;;;;;5093467;28;20032;-66
2023/06/22 02:15:10;;;;;;;84.03;36.58;;;16.70;99.90;;;;;;5075911;28;20067;-66
2023/06/22 02:17:36;;;;;;;81.38;37.25;;;16.60;99.90;;;;;;5111487;28;20030;-67
2023/06/22 02:20:07;;;;;;;80.75;37.28;;;16.60;99.90;;;;;;5088275;28;20123;-66
2023/06/22 02:22:33;;;;;;;75.85;37.90;;;16.60;99.90;;;;;;5075963;28;20495;-67
2023/06/22 02:24:58;;;;;;;76.53;35.90;;;16.60;99.90;;;;;;5075608;28;20032;-66
2023/06/22 02:27:24;;;;;;;73.38;36.47;;;16.60;99.90;;;;;;5078298;28;20024;-66
2023/06/22 02:29:49;;;;;;;81.88;38.55;;;16.60;99.90;;;;;;5084027;28;20088;-66
2023/06/22 02:32:17;;;;;;;80.40;38.42;;;16.60;99.90;;;;;;5095872;28;20044;-67
2023/06/22 02:34:47;;;;;;;82.07;37.45;;;16.60;99.90;;;;;;5082435;28;20080;-65
2023/06/22 02:37:16;;;;;;;86.40;38.83;;;16.60;99.90;;;;;;5076097;28;20039;-66
2023/06/22 02:39:41;;;;;;;74.60;37.05;;;16.60;99.90;;;;;;5075600;28;20036;-66
2023/06/22 02:42:07;;;;;;;80.30;38.05;;;16.60;99.90;;;;;;5075656;28;20029;-66
2023/06/22 02:44:33;;;;;;;86.80;39.90;;;16.60;99.90;;;;;;5075686;28;20024;-67
2023/06/22 02:46:58;;;;;;;83.55;38.42;;;16.60;99.90;;;;;;5075445;28;20040;-67
2023/06/22 02:49:24;;;;;;;83.85;39.30;;;16.60;99.90;;;;;;5075411;28;20043;-66
2023/06/22 02:51:50;;;;;;;80.55;39.20;;;16.70;99.90;;;;;;5075454;28;20024;-66
2023/06/22 02:54:16;;;;;;;79.57;38.53;;;16.60;99.90;;;;;;5076040;28;20086;-66
2023/06/22 02:56:43;;;;;;;81.18;38.20;;;16.60;99.90;;;;;;5075526;28;20052;-66
2023/06/22 02:59:10;;;;;;;75.72;38.47;;;16.60;99.90;;;;;;5075432;28;20033;-67
2023/06/22 03:01:39;;;;;;;85.95;40.50;;;16.60;99.90;;;;;;5075066;28;20031;-67
2023/06/22 03:04:09;;;;;;;73.93;38.17;;;16.60;99.90;;;;;;5075256;28;20032;-67
2023/06/22 03:06:35;;;;;;;72.45;37.35;;;16.60;99.90;;;;;;5075039;28;20032;-67
2023/06/22 03:09:03;;;;;;;66.00;34.20;;;16.60;99.90;;;;;;5074901;28;20094;-66
2023/06/22 03:11:30;;;;;;;74.88;35.80;;;16.60;99.90;;;;;;5074717;28;20092;-67
2023/06/22 03:13:56;;;;;;;69.55;36.47;;;16.60;99.90;;;;;;5073848;28;20526;-67
2023/06/22 03:16:21;;;;;;;71.65;36.00;;;16.60;99.90;;;;;;5074840;28;20033;-67
2023/06/22 03:18:47;;;;;;;72.70;35.70;;;16.60;99.90;;;;;;5074567;28;20033;-67
2023/06/22 03:21:15;;;;;;;72.30;35.33;;;16.60;99.90;;;;;;5074691;28;20028;-66
2023/06/22 03:23:40;;;;;;;73.88;37.00;;;16.60;99.90;;;;;;5073420;28;20483;-67
2023/06/22 03:26:06;;;;;;;70.70;36.25;;;16.50;99.90;;;;;;5073445;28;20024;-67
2023/06/22 03:28:32;;;;;;;73.65;36.45;;;16.50;99.90;;;;;;5074146;28;20020;-65
2023/06/22 03:30:58;;;;;;;69.72;36.67;;;16.50;99.90;;;;;;5074396;28;20025;-66
2023/06/22 03:33:24;;;;;;;71.10;36.20;;;16.50;99.90;;;;;;5074139;28;20052;-66
2023/06/22 03:35:49;;;;;;;70.35;35.92;;;16.50;99.90;;;;;;5074368;28;20369;-66
2023/06/22 03:38:17;;;;;;;69.07;35.03;;;16.50;99.90;;;;;;5074366;28;20035;-68
2023/06/22 03:40:42;;;;;;;71.68;35.28;;;16.50;99.90;;;;;;5074491;28;20488;-66
2023/06/22 03:43:08;;;;;;;66.85;35.10;;;16.50;99.90;;;;;;5074498;28;20046;-67
2023/06/22 03:45:34;;;;;;;68.88;35.75;;;16.50;99.90;;;;;;5074271;28;20028;-67
2023/06/22 03:48:00;;;;;;;68.93;34.53;;;16.50;99.90;;;;;;5074039;28;20043;-66
2023/06/22 03:50:26;;;;;;;59.72;34.22;;;16.50;99.90;;;;;;5074658;28;20112;-66
2023/06/22 03:52:52;;;;;;;63.03;34.40;;;16.50;99.90;;;;;;5073210;28;20466;-67
2023/06/22 03:55:19;;;;;;;62.05;33.38;;;16.60;99.90;;;;;;5074075;28;20385;-67
2023/06/22 03:57:44;;;;;;;57.50;32.72;;;16.50;99.90;;;;;;5074554;28;20104;-66
2023/06/22 04:00:11;;;;;;;62.95;33.05;;;16.60;99.90;;;;;;5073732;28;20120;-66
2023/06/22 04:02:36;;;;;;;59.40;31.65;;;16.60;99.90;;;;;;5073469;28;20044;-66
2023/06/22 04:05:02;;;;;;;56.00;31.50;;;16.60;99.90;;;;;;5073654;28;20024;-66
2023/06/22 04:07:27;;;;;;;56.65;32.38;;;16.60;99.90;;;;;;5073848;28;20028;-66
2023/06/22 04:09:53;;;;;;;59.97;31.67;;;16.60;99.90;;;;;;5073751;28;20388;-66
2023/06/22 04:12:18;;;;;;;59.63;33.17;;;16.60;99.90;;;;;;5073803;28;20024;-66
2023/06/22 04:14:44;;;;;;;59.60;33.50;;;16.70;99.90;;;;;;5073985;28;20040;-66
2023/06/22 04:17:09;;;;;;;60.25;34.40;;;16.80;99.90;;;;;;5073218;28;20025;-66
2023/06/22 04:19:35;;;;;;;57.13;33.28;;;16.80;99.90;;;;;;5073786;28;20032;-67
2023/06/22 04:22:01;;;;;;;62.17;34.50;;;16.80;99.90;;;;;;5073903;28;20025;-65
2023/06/22 04:24:26;;;;;;;63.35;36.58;;;16.90;99.90;;;;;;5073776;28;20025;-67
2023/06/22 04:26:54;;;;;;;62.70;36.38;;;16.90;99.90;;;;;;5073671;28;20081;-66
2023/06/22 04:29:20;;;;;;;61.60;34.63;;;17.00;99.90;;;;;;5073470;28;20024;-67
2023/06/22 04:31:50;;;;;;;62.75;35.15;;;17.10;99.90;;;;;;5073000;28;20043;-66
2023/06/22 04:34:16;;;;;;;59.10;36.35;;;17.10;99.90;;;;;;5073350;28;20049;-66
2023/06/22 04:36:42;;;;;;;59.78;33.45;;;17.20;99.90;;;;;;5073288;28;20029;-66
2023/06/22 04:39:09;;;;;;;57.55;34.53;;;17.20;99.90;;;;;;5073641;28;20028;-66
2023/06/22 04:41:43;;;;;;;60.78;35.72;;;17.30;99.90;;;;;;5073095;28;20588;-67
2023/06/22 04:44:09;;;;;;;56.63;33.80;;;17.40;99.90;;;;;;5073167;28;20100;-66
2023/06/22 04:46:37;;;;;;;55.60;34.92;;;17.50;99.90;;;;;;5073276;28;20483;-66
2023/06/22 04:49:06;;;;;;;54.30;33.88;;;17.60;99.90;;;;;;5073426;28;20028;-66
2023/06/22 04:51:32;;;;;;;56.85;33.70;;;17.70;99.90;;;;;;5088722;28;20543;-67
2023/06/22 04:54:00;;;;;;;49.88;33.33;;;17.80;99.90;;;;;;5072951;28;20104;-66
2023/06/22 04:56:28;;;;;;;57.58;33.40;;;17.90;99.90;;;;;;5073255;28;20025;-66
2023/06/22 04:58:56;;;;;;;50.47;32.67;;;18.10;99.90;;;;;;5072447;28;20392;-66
2023/06/22 05:01:23;;;;;;;51.85;32.65;;;18.20;99.90;;;;;;5072914;28;20036;-66
2023/06/22 05:03:48;;;;;;;48.42;30.75;;;18.30;99.90;;;;;;5072793;28;20031;-66
2023/06/22 05:06:14;;;;;;;51.72;31.65;;;18.50;99.90;;;;;;5073023;28;20403;-66
2023/06/22 05:08:40;;;;;;;50.15;32.17;;;18.70;99.90;;;;;;5072561;28;20031;-67
2023/06/22 05:11:06;;;;;;;48.25;31.23;;;18.80;99.90;;;;;;5072816;28;20064;-67
2023/06/22 05:13:32;;;;;;;49.25;31.65;;;19.10;99.90;;;;;;5072283;28;20052;-65
2023/06/22 05:16:01;;;;;;;47.50;31.30;;;19.30;99.90;;;;;;5072811;28;20079;-66
2023/06/22 05:18:29;;;;;;;45.10;30.52;;;19.60;99.90;;;;;;5072804;28;20441;-67
2023/06/22 05:20:55;;;;;;;38.47;27.02;;;20.00;99.90;;;;;;5072749;28;20118;-67
2023/06/22 05:23:20;;;;;;;38.55;25.13;;;20.40;99.90;;;;;;5072792;28;20024;-67
2023/06/22 05:25:46;;;;;;;39.40;26.50;;;20.80;99.90;;;;;;5072740;28;20032;-67
2023/06/22 05:28:12;;;;;;;35.92;23.13;;;21.10;99.90;;;;;;5071942;28;20067;-66
2023/06/22 05:30:38;;;;;;;35.40;24.10;;;21.30;99.90;;;;;;5072370;28;20422;-67
2023/06/22 05:33:03;;;;;;;35.10;24.90;;;21.40;99.90;;;;;;5072259;28;20559;-66
2023/06/22 05:35:29;;;;;;;37.55;24.63;;;21.50;99.90;;;;;;5072090;28;20066;-66
2023/06/22 05:37:55;;;;;;;36.60;24.73;;;21.70;99.90;;;;;;5090430;28;20039;-66
2023/06/22 05:40:21;;;;;;;32.97;22.17;;;22.10;99.90;;;;;;5092544;28;20080;-67
2023/06/22 05:42:47;;;;;;;31.67;22.58;;;22.50;99.90;;;;;;5090941;28;20383;-66
2023/06/22 05:45:13;;;;;;;32.00;22.63;;;23.00;99.90;;;;;;5092633;28;20573;-65
2023/06/22 05:47:38;;;;;;;31.23;21.83;;;23.50;99.90;;;;;;5092433;28;20103;-66
2023/06/22 05:50:08;;;;;;;32.20;21.92;;;24.00;99.90;;;;;;5092648;28;20028;-67
2023/06/22 05:52:34;;;;;;;27.70;19.70;;;24.40;99.90;;;;;;5092629;28;20024;-67
2023/06/22 05:55:02;;;;;;;30.45;20.45;;;24.40;99.90;;;;;;5089204;28;20135;-67
2023/06/22 05:57:27;;;;;;;33.28;21.45;;;24.40;99.90;;;;;;5091984;28;20496;-67
2023/06/22 05:59:53;;;;;;;31.65;20.35;;;24.50;99.90;;;;;;5092403;28;20020;-66
2023/06/22 06:02:19;;;;;;;31.08;20.10;;;24.70;99.90;;;;;;5092474;28;20026;-66
2023/06/22 06:04:45;;;;;;;30.83;21.15;;;24.80;99.90;;;;;;5091195;28;20352;-66
2023/06/22 06:07:10;;;;;;;30.45;20.35;;;25.30;99.90;;;;;;5091969;28;20024;-67
2023/06/22 06:09:36;;;;;;;28.98;19.60;;;25.60;99.90;;;;;;5092193;28;20028;-66
2023/06/22 06:12:03;;;;;;;28.95;19.20;;;26.00;99.90;;;;;;5092325;28;20032;-66
2023/06/22 06:14:28;;;;;;;27.27;19.08;;;26.60;99.90;;;;;;5092184;28;20490;-66
2023/06/22 06:16:54;;;;;;;29.65;19.25;;;27.10;99.90;;;;;;5090866;28;20029;-66
2023/06/22 06:19:19;;;;;;;25.00;18.27;;;27.70;99.90;;;;;;5091951;28;20664;-66
2023/06/22 06:21:45;;;;;;;26.20;17.38;;;27.80;99.90;;;;;;5091863;28;20055;-66
2023/06/22 06:24:11;;;;;;;28.58;19.52;;;27.80;99.90;;;;;;5092000;28;20032;-66
2023/06/22 06:26:37;;;;;;;27.88;19.45;;;27.60;99.90;;;;;;5091946;28;20039;-65
2023/06/22 06:29:03;;;;;;;28.65;19.35;;;27.40;99.90;;;;;;5091817;28;20024;-65
2023/06/22 06:31:29;;;;;;;27.15;18.50;;;27.20;99.90;;;;;;5091644;28;20020;-65
2023/06/22 06:33:54;;;;;;;27.02;18.88;;;27.10;99.90;;;;;;5090758;28;20126;-66
2023/06/22 06:36:20;;;;;;;28.88;19.25;;;27.00;99.90;;;;;;5089387;28;20051;-66
2023/06/22 06:38:49;;;;;;;26.63;19.17;;;27.00;99.90;;;;;;5090806;28;20064;-67
2023/06/22 06:41:15;;;;;;;29.35;20.40;;;26.90;99.90;;;;;;5091585;28;20031;-65
2023/06/22 06:43:44;;;;;;;28.38;20.10;;;26.80;99.90;;;;;;5079771;28;20059;-67
2023/06/22 06:46:10;;;;;;;28.40;20.30;;;26.80;99.90;;;;;;5071556;28;20021;-67
2023/06/22 06:48:35;;;;;;;28.92;19.75;;;26.80;99.90;;;;;;5072690;28;20717;-65
2023/06/22 06:51:01;;;;;;;28.27;19.90;;;26.90;99.90;;;;;;5075572;28;20149;-65
2023/06/22 06:53:28;;;;;;;29.17;20.30;;;27.20;99.90;;;;;;5074738;28;20037;-66
2023/06/22 06:55:54;;;;;;;28.20;19.83;;;27.80;99.90;;;;;;5075076;28;20072;-67
2023/06/22 06:58:19;;;;;;;26.85;18.40;;;28.60;99.90;;;;;;5074409;28;20059;-66
2023/06/22 07:00:45;;;;;;;28.23;18.23;;;29.60;99.90;;;;;;5075753;28;20034;-65
2023/06/22 07:03:11;;;;;;;24.20;16.55;;;30.30;99.70;;;;;;5074879;28;20056;-65
2023/06/22 07:05:36;;;;;;;24.80;16.20;;;30.60;98.00;;;;;;5077472;28;20031;-65
2023/06/22 07:08:02;;;;;;;22.42;15.93;;;30.70;97.60;;;;;;5094671;28;20041;-67
2023/06/22 07:10:28;;;;;;;23.73;16.00;;;30.60;97.00;;;;;;5094171;28;20035;-66
2023/06/22 07:12:54;;;;;;;21.33;15.38;;;30.40;97.70;;;;;;5095103;28;20028;-66
2023/06/22 07:15:20;;;;;;;22.38;15.20;;;30.40;97.60;;;;;;5096152;28;20047;-66
2023/06/22 07:17:45;;;;;;;28.02;17.70;;;30.60;97.10;;;;;;5115381;28;20047;-67
2023/06/22 07:20:12;;;;;;;24.35;16.95;;;30.90;96.90;;;;;;5115204;28;20024;-67
2023/06/22 07:22:42;;;;;;;25.08;16.08;;;31.30;96.80;;;;;;5108781;28;20023;-67
2023/06/22 07:25:14;;;;;;;24.85;16.40;;;31.70;96.20;;;;;;5095789;28;20379;-67
2023/06/22 07:27:43;;;;;;;24.30;16.60;;;31.80;95.90;;;;;;5094487;28;20026;-67
2023/06/22 07:30:10;;;;;;;23.88;15.65;;;31.30;96.30;;;;;;5105049;28;20165;-67
2023/06/22 07:32:36;;;;;;;22.88;15.95;;;30.90;96.50;;;;;;5092789;28;20058;-67
2023/06/22 07:35:02;;;;;;;22.35;15.60;;;30.20;97.30;;;;;;5111430;28;20039;-65
2023/06/22 07:37:28;;;;;;;22.75;14.85;;;29.80;97.80;;;;;;5099005;28;20079;-67
2023/06/22 07:39:58;;;;;;;21.15;12.82;;;29.60;98.10;;;;;;5106832;28;20453;-66
2023/06/22 07:42:28;;;;;;;19.00;12.07;;;29.80;97.50;;;;;;5107241;28;20481;-66
2023/06/22 07:44:54;;;;;;;19.10;10.73;;;30.30;96.50;;;;;;5107291;28;20429;-65
2023/06/22 07:47:20;;;;;;;18.08;10.80;;;30.70;95.60;;;;;;5094179;28;20032;-66
2023/06/22 07:49:49;;;;;;;18.08;11.25;;;30.90;95.50;;;;;;5098954;28;20054;-65
2023/06/22 07:52:14;;;;;;;18.13;10.35;;;31.10;94.80;;;;;;5105478;28;20023;-67
2023/06/22 07:54:40;;;;;;;21.20;11.43;;;31.20;94.60;;;;;;5099763;28;20115;-67
2023/06/22 07:57:06;;;;;;;17.15;10.60;;;31.30;94.50;;;;;;5098684;28;20081;-67
2023/06/22 07:59:32;;;;;;;17.65;10.68;;;31.30;94.30;;;;;;5109374;28;20055;-66
2023/06/22 08:01:57;;;;;;;17.98;10.68;;;31.30;94.20;;;;;;5102966;28;20388;-66
2023/06/22 08:04:23;;;;;;;21.52;12.82;;;31.30;94.30;;;;;;5102211;28;20502;-66
2023/06/22 08:06:49;;;;;;;18.20;11.27;;;31.20;94.50;;;;;;5110250;28;20034;-66
2023/06/22 08:09:14;;;;;;;18.40;11.35;;;31.10;94.70;;;;;;5095655;28;20451;-66
2023/06/22 08:11:40;;;;;;;20.45;12.43;;;31.00;94.80;;;;;;5093926;28;20417;-66
2023/06/22 08:14:05;;;;;;;21.48;12.95;;;31.00;94.50;;;;;;5108226;28;20110;-66
2023/06/22 08:16:31;;;;;;;20.77;13.43;;;31.10;94.70;;;;;;5100892;28;20039;-67
2023/06/22 08:18:57;;;;;;;20.70;13.75;;;31.40;94.40;;;;;;5110711;28;20073;-66
2023/06/22 08:21:22;;;;;;;20.23;13.70;;;31.60;94.30;;;;;;5097800;28;20495;-66
2023/06/22 08:23:48;;;;;;;19.20;14.02;;;31.80;93.70;;;;;;5105655;28;20024;-66
2023/06/22 08:26:14;;;;;;;20.20;14.88;;;32.00;93.80;;;;;;5093552;28;20028;-67
2023/06/22 08:28:40;;;;;;;22.58;16.17;;;32.40;93.30;;;;;;5108806;28;20039;-67
2023/06/22 08:31:05;;;;;;;20.35;16.20;;;33.00;92.40;;;;;;5097007;28;20028;-67
2023/06/22 08:33:31;;;;;;;20.40;15.52;;;33.50;91.60;;;;;;5107877;28;20039;-67
2023/06/22 08:35:58;;;;;;;20.23;15.32;;;34.10;90.90;;;;;;5101998;28;20031;-66
2023/06/22 08:38:24;;;;;;;23.50;16.77;;;34.50;90.20;;;;;;5106261;28;20020;-66
2023/06/22 08:40:49;;;;;;;22.52;16.83;;;34.60;90.10;;;;;;5109524;28;20378;-66
2023/06/22 08:43:15;;;;;;;21.17;15.23;;;34.50;90.10;;;;;;5093237;28;20481;-67
2023/06/22 08:45:40;;;;;;;20.70;15.27;;;34.50;90.20;;;;;;5107159;28;20020;-66
2023/06/22 08:48:06;;;;;;;19.48;13.95;;;34.60;90.20;;;;;;5102736;28;20028;-66
2023/06/22 08:50:32;;;;;;;20.90;12.98;;;35.00;89.60;;;;;;5100461;28;20024;-66
2023/06/22 08:52:57;;;;;;;15.60;11.05;;;35.10;88.30;;;;;;5109977;28;20141;-66
2023/06/22 08:55:23;;;;;;;16.40;10.55;;;34.90;88.30;;;;;;5096810;28;20032;-66
2023/06/22 08:57:48;;;;;;;16.52;10.38;;;34.90;87.80;;;;;;5105931;28;20030;-66
2023/06/22 09:00:19;;;;;;;16.17;9.88;;;35.00;87.30;;;;;;5104008;28;20063;-67
2023/06/22 09:02:45;;;;;;;18.30;9.75;;;35.00;87.20;;;;;;5097941;28;20057;-66
2023/06/22 09:05:11;;;;;;;17.30;10.13;;;35.40;86.90;;;;;;5109886;28;20042;-66
2023/06/22 09:07:37;;;;;;;15.10;9.50;;;35.70;85.50;;;;;;5098456;28;20103;-66
2023/06/22 09:10:04;;;;;;;14.98;9.13;;;35.70;85.30;;;;;;5103835;28;20032;-67
2023/06/22 09:12:30;;;;;;;14.98;9.25;;;35.70;84.70;;;;;;5102986;28;20031;-68
2023/06/22 09:14:56;;;;;;;18.90;9.95;;;35.40;85.80;;;;;;5096473;28;20038;-67
2023/06/22 09:17:22;;;;;;;15.55;9.77;;;34.90;85.80;;;;;;5096397;28;20028;-66
2023/06/22 09:19:48;;;;;;;15.32;9.75;;;34.70;85.70;;;;;;5106034;28;20024;-67
2023/06/22 09:22:14;;;;;;;17.00;9.27;;;34.30;87.30;;;;;;5103850;28;20027;-67
2023/06/22 09:24:40;;;;;;;15.80;9.95;;;34.20;87.20;;;;;;5094761;28;20053;-66
2023/06/22 09:27:05;;;;;;;17.25;9.93;;;34.40;86.90;;;;;;5096607;28;20478;-66
2023/06/22 09:29:33;;;;;;;15.55;9.98;;;34.50;86.90;;;;;;5108330;28;20099;-67
2023/06/22 09:31:59;;;;;;;15.25;9.50;;;34.50;85.50;;;;;;5098045;28;20032;-67
2023/06/22 09:34:25;;;;;;;15.23;9.85;;;34.40;86.40;;;;;;5100428;28;20040;-67
2023/06/22 09:36:50;;;;;;;15.38;9.40;;;34.60;86.60;;;;;;5108475;28;20471;-66
2023/06/22 09:39:18;;;;;;;17.25;10.75;;;34.90;86.00;;;;;;5092277;28;20055;-66
2023/06/22 09:41:44;;;;;;;14.18;9.18;;;34.90;85.60;;;;;;5096623;28;20035;-67
2023/06/22 09:44:10;;;;;;;15.73;9.68;;;34.90;85.30;;;;;;5102274;28;20032;-67
2023/06/22 09:46:35;;;;;;;16.85;10.85;;;35.10;85.50;;;;;;5098816;28;20030;-67
2023/06/22 09:49:01;;;;;;;15.48;10.23;;;35.10;85.50;;;;;;5109008;28;20367;-67
2023/06/22 09:51:27;;;;;;;16.40;9.27;;;35.00;85.80;;;;;;5096817;28;20035;-67
2023/06/22 09:53:55;;;;;;;18.02;9.85;;;35.00;85.70;;;;;;5104853;28;20164;-67
2023/06/22 09:56:21;;;;;;;15.93;10.00;;;35.30;85.70;;;;;;5104366;28;20463;-67
2023/06/22 09:58:47;;;;;;;18.92;10.85;;;35.30;84.30;;;;;;5096691;28;20027;-66
2023/06/22 10:01:15;;;;;;;15.98;10.20;;;35.10;85.20;;;;;;5108871;28;20030;-67
2023/06/22 10:03:41;;;;;;;19.58;10.75;;;35.10;85.80;;;;;;5098805;28;20055;-66
2023/06/22 10:06:07;;;;;;;18.70;11.02;;;35.10;85.30;;;;;;5102873;28;20052;-67
2023/06/22 10:08:33;;;;;;;16.23;9.95;;;34.90;86.10;;;;;;5105890;28;20451;-67
2023/06/22 10:10:58;;;;;;;17.58;11.63;;;34.40;87.30;;;;;;5095785;28;20038;-66
2023/06/22 10:13:24;;;;;;;19.20;10.82;;;33.70;88.60;;;;;;5095616;28;20368;-68
2023/06/22 10:15:51;;;;;;;17.08;11.55;;;33.30;89.30;;;;;;5099805;28;20027;-68
2023/06/22 10:18:18;;;;;;;18.45;12.27;;;32.90;90.20;;;;;;5101385;28;20134;-66
2023/06/22 10:20:44;;;;;;;18.67;11.48;;;32.70;90.60;;;;;;5107144;28;20081;-68
2023/06/22 10:23:10;;;;;;;16.77;9.30;;;32.50;90.60;;;;;;5092945;28;20055;-67
2023/06/22 10:25:35;;;;;;;17.38;10.32;;;32.30;89.80;;;;;;5100144;28;20467;-67
2023/06/22 10:28:01;;;;;;;21.05;12.15;;;32.10;90.40;;;;;;5106497;28;20462;-67
2023/06/22 10:30:28;;;;;;;16.98;10.93;;;31.90;90.60;;;;;;5107698;28;20447;-67
2023/06/22 10:32:54;;;;;;;17.55;10.57;;;31.70;91.10;;;;;;5086873;28;20051;-67
2023/06/22 10:35:19;;;;;;;14.93;9.05;;;31.60;91.40;;;;;;5115757;28;20035;-67
2023/06/22 10:37:46;;;;;;;17.20;9.73;;;31.70;90.90;;;;;;5109716;28;20024;-66
2023/06/22 10:40:16;;;;;;;16.60;9.52;;;31.80;90.90;;;;;;5106702;28;20055;-67
2023/06/22 10:42:42;;;;;;;15.23;9.30;;;31.80;90.60;;;;;;5101006;27;20030;-67
2023/06/22 10:45:09;;;;;;;18.77;9.05;;;31.60;90.60;;;;;;5112482;28;20028;-68
2023/06/22 10:47:35;;;;;;;16.30;8.23;;;31.80;90.50;;;;;;5101189;28;20031;-67
2023/06/22 10:50:01;;;;;;;12.55;7.63;;;31.80;90.10;;;;;;5105924;28;20031;-67
2023/06/22 10:52:27;;;;;;;14.27;7.43;;;31.90;90.30;;;;;;5103311;28;20036;-67
2023/06/22 10:54:52;;;;;;;14.07;7.47;;;32.10;89.90;;;;;;5111638;28;20262;-68
2023/06/22 10:57:18;;;;;;;12.85;7.00;;;32.30;89.10;;;;;;5098710;28;20034;-66
2023/06/22 10:59:44;;;;;;;13.38;6.88;;;32.60;88.40;;;;;;5108922;28;20024;-67
2023/06/22 11:02:09;;;;;;;18.20;7.05;;;32.70;87.90;;;;;;5105575;28;20378;-68
2023/06/22 11:04:35;;;;;;;12.43;6.38;;;32.70;87.00;;;;;;5101979;28;20027;-67
2023/06/22 11:07:01;;;;;;;12.55;6.82;;;32.50;86.50;;;;;;5085883;28;20044;-68
2023/06/22 11:09:26;;;;;;;14.32;7.50;;;32.10;87.30;;;;;;5111194;28;20028;-68
2023/06/22 11:11:55;;;;;;;19.17;8.85;;;31.70;89.10;;;;;;5102989;28;20462;-68
2023/06/22 11:14:22;;;;;;;16.90;8.32;;;31.40;90.40;;;;;;5103549;28;20115;-68
2023/06/22 11:16:47;;;;;;;12.75;7.90;;;31.10;90.30;;;;;;5111122;28;20102;-67
2023/06/22 11:19:13;;;;;;;16.13;8.52;;;30.90;91.00;;;;;;5086229;28;20187;-68
2023/06/22 11:21:39;;;;;;;15.68;9.35;;;30.60;91.10;;;;;;5109813;28;20447;-68
2023/06/22 11:24:05;;;;;;;15.00;8.70;;;30.40;91.50;;;;;;5095747;28;20031;-68
2023/06/22 11:26:31;;;;;;;18.48;9.75;;;30.30;91.60;;;;;;5097545;28;20024;-68
2023/06/22 11:28:58;;;;;;;15.20;9.38;;;30.30;91.70;;;;;;5111746;28;20143;-67
2023/06/22 11:31:24;;;;;;;14.07;8.73;;;30.20;91.90;;;;;;5098792;28;20055;-67
2023/06/22 11:33:49;;;;;;;13.38;8.13;;;30.00;92.00;;;;;;5107417;27;20590;-67
2023/06/22 11:36:15;;;;;;;15.73;9.27;;;29.90;92.20;;;;;;5103962;28;20101;-68
2023/06/22 11:38:42;;;;;;;15.85;9.60;;;29.80;92.00;;;;;;5091650;28;20024;-68
2023/06/22 11:41:09;;;;;;;17.95;9.98;;;29.70;92.20;;;;;;5084047;28;20127;-68
2023/06/22 11:43:35;;;;;;;18.35;10.23;;;29.60;92.60;;;;;;5104961;28;20368;-67
2023/06/22 11:46:03;;;;;;;16.92;9.45;;;29.70;92.70;;;;;;5104961;28;20396;-68
2023/06/22 11:48:28;;;;;;;16.92;9.75;;;29.80;92.50;;;;;;5107060;28;20020;-67
2023/06/22 11:50:54;;;;;;;16.33;9.23;;;29.80;92.20;;;;;;5098505;28;20020;-68
2023/06/22 11:53:21;;;;;;;17.33;9.88;;;29.80;92.30;;;;;;5111446;28;20048;-68
2023/06/22 11:55:47;;;;;;;14.75;9.10;;;29.80;92.40;;;;;;5101491;28;20035;-67
2023/06/22 11:58:13;;;;;;;18.48;10.38;;;29.90;92.50;;;;;;5097553;28;20032;-67
2023/06/22 12:00:38;;;;;;;17.85;10.70;;;29.80;92.60;;;;;;5089137;28;20024;-67
2023/06/22 12:03:04;;;;;;;17.00;10.43;;;29.70;92.60;;;;;;5110517;28;20030;-68
2023/06/22 12:05:29;;;;;;;15.63;9.18;;;29.60;92.50;;;;;;5098752;28;20034;-68
2023/06/22 12:07:55;;;;;;;19.17;11.90;;;29.60;92.50;;;;;;5106301;28;20032;-68
2023/06/22 12:10:23;;;;;;;20.60;11.52;;;29.50;92.20;;;;;;5104855;28;20037;-68
2023/06/22 12:12:48;;;;;;;18.90;12.20;;;29.40;92.40;;;;;;5098717;28;20035;-67
2023/06/22 12:15:14;;;;;;;16.80;10.73;;;29.30;92.80;;;;;;5086217;28;20033;-68
2023/06/22 12:17:40;;;;;;;18.23;10.85;;;29.20;93.10;;;;;;5099987;28;20016;-68
2023/06/22 12:20:07;;;;;;;17.33;10.45;;;29.10;93.20;;;;;;5104748;28;20118;-68
2023/06/22 12:22:33;;;;;;;17.33;9.48;;;28.80;93.40;;;;;;5108370;28;20046;-70
2023/06/22 12:24:58;;;;;;;17.42;9.25;;;28.60;93.60;;;;;;5101368;28;20099;-68